createdAt,value
2022-10-06T00:03:51.477Z,15.3
2022-10-06T00:08:52.358Z,15.3
2022-10-06T00:13:51.837Z,15.3
2022-10-06T00:18:51.521Z,15.3
2022-10-06T00:23:51.799Z,15.3
2022-10-06T00:28:52.219Z,15.3
2022-10-06T00:33:51.534Z,15.3
2022-10-06T00:38:51.924Z,15.2
2022-10-06T00:43:51.618Z,15.2
2022-10-06T00:48:52.074Z,15.2
2022-10-06T00:53:51.871Z,15.2
2022-10-06T00:58:52.237Z,15.1
2022-10-06T01:03:51.987Z,15.1
2022-10-06T01:08:52.429Z,14.9
2022-10-06T01:13:51.881Z,14.9
2022-10-06T01:18:52.306Z,14.7
2022-10-06T01:23:51.856Z,14.7
2022-10-06T01:28:52.247Z,14.5
2022-10-06T01:33:51.634Z,14.5
2022-10-06T01:38:52.093Z,14.3
2022-10-06T01:43:51.424Z,14.3
2022-10-06T01:48:51.765Z,14.2
2022-10-06T01:53:51.496Z,14.2
2022-10-06T01:58:51.744Z,14.1
2022-10-06T02:03:52.009Z,14.1
2022-10-06T02:08:52.512Z,13.9
2022-10-06T02:13:51.934Z,13.9
2022-10-06T02:18:52.101Z,13.9
2022-10-06T02:23:51.706Z,13.9
2022-10-06T02:28:52.256Z,13.9
2022-10-06T02:33:51.569Z,13.9
2022-10-06T02:38:51.902Z,14
2022-10-06T02:43:51.606Z,14
2022-10-06T02:48:51.985Z,14.1
2022-10-06T02:53:51.763Z,14.1
2022-10-06T02:58:52.478Z,13.9
2022-10-06T03:03:51.902Z,13.9
2022-10-06T03:08:52.092Z,13.7
2022-10-06T03:13:52.356Z,13.7
2022-10-06T03:18:51.844Z,13.7
2022-10-06T03:23:52.520Z,13.7
2022-10-06T03:28:52.020Z,13.6
2022-10-06T03:33:51.613Z,13.6
2022-10-06T03:38:52.388Z,13.5
2022-10-06T03:43:52.124Z,13.5
2022-10-06T03:48:51.916Z,13.3
2022-10-06T03:53:52.436Z,13.3
2022-10-06T03:58:52.191Z,13.2
2022-10-06T04:03:52.072Z,13.2
2022-10-06T04:08:52.247Z,13.1
2022-10-06T04:13:51.921Z,13.1
2022-10-06T04:18:52.266Z,13.1
2022-10-06T04:23:52.097Z,13.1
2022-10-06T04:28:52.549Z,13
2022-10-06T04:33:52.183Z,13
2022-10-06T04:38:52.048Z,12.9
2022-10-06T04:43:51.811Z,12.9
2022-10-06T04:48:52.674Z,12.8
2022-10-06T04:53:52.662Z,12.8
2022-10-06T04:58:52.370Z,12.8
2022-10-06T05:03:51.973Z,12.8
2022-10-06T05:08:52.493Z,12.7
2022-10-06T05:13:51.780Z,12.7
2022-10-06T05:18:52.076Z,12.6
2022-10-06T05:23:51.615Z,12.6
2022-10-06T05:28:52.238Z,12.6
2022-10-06T05:33:51.628Z,12.6
2022-10-06T05:38:52.131Z,12.5
2022-10-06T05:43:52.515Z,12.5
2022-10-06T05:48:51.752Z,12.5
2022-10-06T05:53:52.298Z,12.5
2022-10-06T05:58:51.633Z,12.4
2022-10-06T06:03:52.111Z,12.4
2022-10-06T06:08:52.417Z,12.4
2022-10-06T06:13:51.927Z,12.4
2022-10-06T06:18:52.200Z,12.5
2022-10-06T06:23:52.717Z,12.5
2022-10-06T06:28:52.426Z,12.4
2022-10-06T06:33:52.107Z,12.4
2022-10-06T06:38:52.661Z,12.5
2022-10-06T06:43:52.073Z,12.5
2022-10-06T06:48:52.697Z,12.7
2022-10-06T06:53:52.151Z,12.7
2022-10-06T06:58:52.518Z,12.8
2022-10-06T07:03:59.039Z,12.8
2022-10-06T07:08:51.973Z,13.1
2022-10-06T07:13:52.627Z,13.1
2022-10-06T07:18:51.911Z,13.2
2022-10-06T07:23:52.409Z,13.2
2022-10-06T07:28:52.775Z,13.3
2022-10-06T07:33:52.099Z,13.3
2022-10-06T07:38:52.409Z,13.4
2022-10-06T07:43:51.749Z,13.4
2022-10-06T07:48:52.338Z,13.5
2022-10-06T07:53:51.885Z,13.5
2022-10-06T07:58:52.280Z,13.6
2022-10-06T08:03:52.165Z,13.6
2022-10-06T08:08:53.723Z,13.7
2022-10-06T08:13:52.451Z,13.7
2022-10-06T08:18:51.998Z,13.8
2022-10-06T08:23:52.615Z,13.8
2022-10-06T08:28:52.202Z,13.9
2022-10-06T08:33:52.563Z,13.9
2022-10-06T08:38:52.338Z,14.3
2022-10-06T08:43:52.047Z,14.3
2022-10-06T08:48:52.664Z,14.4
2022-10-06T08:53:52.080Z,14.4
2022-10-06T08:58:52.186Z,14.5
2022-10-06T09:03:52.580Z,14.5
2022-10-06T09:08:52.204Z,14.7
2022-10-06T09:13:51.853Z,14.7
2022-10-06T09:19:09.452Z,15.2
2022-10-06T09:23:51.907Z,15.2
2022-10-06T09:28:52.437Z,15.4
2022-10-06T09:33:52.243Z,15.4
2022-10-06T09:38:52.654Z,15.2
2022-10-06T09:43:52.561Z,15.2
2022-10-06T09:48:52.763Z,15.4
2022-10-06T09:53:52.357Z,15.4
2022-10-06T09:58:52.393Z,15.3
2022-10-06T10:04:21.528Z,15.3
2022-10-06T10:08:52.564Z,15.4
2022-10-06T10:13:51.899Z,15.4
2022-10-06T10:18:52.283Z,15.6
2022-10-06T10:23:51.869Z,15.6
2022-10-06T10:28:52.435Z,15.4
2022-10-06T10:34:23.502Z,15.4
2022-10-06T10:38:52.063Z,15.9
2022-10-06T10:43:52.011Z,15.9
2022-10-06T10:48:52.392Z,16.2
2022-10-06T10:53:51.923Z,16.2
2022-10-06T10:58:52.672Z,16.3
2022-10-06T11:03:52.072Z,16.3
2022-10-06T11:08:52.858Z,15.9
2022-10-06T11:13:52.522Z,15.9
2022-10-06T11:18:53.011Z,16
2022-10-06T11:23:52.468Z,16
2022-10-06T11:28:52.104Z,16
2022-10-06T11:33:52.804Z,16
2022-10-06T11:38:52.279Z,16
2022-10-06T11:43:52.606Z,16
2022-10-06T11:48:52.093Z,16.2
2022-10-06T11:53:52.718Z,16.2
2022-10-06T11:58:52.360Z,16.5
2022-10-06T12:03:52.188Z,16.5
2022-10-06T12:08:52.842Z,16.7
2022-10-06T12:17:08.379Z,16.7
2022-10-06T12:18:52.777Z,16.5
2022-10-06T12:23:52.674Z,16.5
2022-10-06T12:28:52.086Z,16.4
2022-10-06T12:33:52.760Z,16.4
2022-10-06T12:38:52.319Z,16.5
2022-10-06T12:43:52.730Z,16.5
2022-10-06T12:48:52.166Z,16.9
2022-10-06T12:53:52.563Z,16.9
2022-10-06T12:58:52.075Z,16.8
2022-10-06T13:03:52.512Z,16.8
2022-10-06T13:08:52.012Z,16.8
2022-10-06T13:13:52.458Z,16.8
2022-10-06T13:18:51.965Z,16.6
2022-10-06T13:23:52.285Z,16.6
2022-10-06T13:28:52.656Z,16.9
2022-10-06T13:33:51.985Z,16.9
2022-10-06T13:38:52.468Z,16.8
2022-10-06T13:43:51.964Z,16.8
2022-10-06T13:48:52.462Z,16.8
2022-10-06T13:53:52.827Z,16.8
2022-10-06T13:58:52.025Z,17
2022-10-06T14:03:52.723Z,17
2022-10-06T14:08:52.378Z,16.9
2022-10-06T14:13:52.103Z,16.9
2022-10-06T14:18:52.729Z,16.8
2022-10-06T14:23:52.197Z,16.8
2022-10-06T14:28:52.646Z,16.6
2022-10-06T14:33:52.893Z,16.6
2022-10-06T14:38:52.394Z,16.4
2022-10-06T14:43:52.865Z,16.4
2022-10-06T14:48:52.946Z,16.3
2022-10-06T14:53:52.769Z,16.3
2022-10-06T14:58:52.814Z,16.2
2022-10-06T15:03:52.633Z,16.2
2022-10-06T15:08:52.419Z,16.1
2022-10-06T15:13:52.232Z,16.1
2022-10-06T15:18:52.742Z,16
2022-10-06T15:23:52.415Z,16
2022-10-06T15:28:52.535Z,15.8
2022-10-06T15:33:53.388Z,15.8
2022-10-06T15:38:52.466Z,15.7
2022-10-06T15:43:52.024Z,15.7
2022-10-06T15:48:52.863Z,15.6
2022-10-06T15:53:52.065Z,15.6
2022-10-06T15:58:52.485Z,15.4
2022-10-06T16:03:52.554Z,15.4
2022-10-06T16:08:52.236Z,15.2
2022-10-06T16:13:52.650Z,15.2
2022-10-06T16:18:52.370Z,15.1
2022-10-06T16:23:52.920Z,15.1
2022-10-06T16:28:52.158Z,14.9
2022-10-06T16:33:52.448Z,14.9
2022-10-06T16:38:53.115Z,14.6
2022-10-06T16:43:52.833Z,14.6
2022-10-06T16:48:52.672Z,14.3
2022-10-06T16:53:52.318Z,14.3
2022-10-06T16:58:52.496Z,13.9
2022-10-06T17:03:52.904Z,13.9
2022-10-06T17:08:52.550Z,13.3
2022-10-06T17:13:52.628Z,13.3
2022-10-06T17:18:52.194Z,12.9
2022-10-06T17:23:52.667Z,12.9
2022-10-06T17:28:52.228Z,12.8
2022-10-06T17:33:52.794Z,12.8
2022-10-06T17:38:52.225Z,12.5
2022-10-06T17:43:52.632Z,12.5
2022-10-06T17:48:52.673Z,11.8
2022-10-06T17:53:52.214Z,11.8
2022-10-06T17:58:52.627Z,11.5
2022-10-06T18:03:52.105Z,11.5
2022-10-06T18:08:52.713Z,11.4
2022-10-06T18:13:52.959Z,11.4
2022-10-06T18:18:52.345Z,11.3
2022-10-06T18:23:53.036Z,11.3
2022-10-06T18:28:52.460Z,11.2
2022-10-06T18:38:52.146Z,11.3
2022-10-06T18:43:52.689Z,11.3
2022-10-06T18:48:53.167Z,11.3
2022-10-06T18:53:52.557Z,11.3
2022-10-06T18:58:52.257Z,11.2
2022-10-06T19:03:52.590Z,11.2
2022-10-06T19:08:53.023Z,10.9
2022-10-06T19:13:52.340Z,10.9
2022-10-06T19:18:52.962Z,10.9
2022-10-06T19:23:52.253Z,10.9
2022-10-06T19:28:52.719Z,11.1
2022-10-06T19:33:52.076Z,11.1
2022-10-06T19:38:52.432Z,11.1
2022-10-06T19:43:52.154Z,11.1
2022-10-06T19:48:52.444Z,11
2022-10-06T19:53:52.837Z,11
2022-10-06T19:58:52.563Z,10.8
2022-10-06T20:03:52.396Z,10.8
2022-10-06T20:08:52.819Z,10.7
2022-10-06T20:13:52.383Z,10.7
2022-10-06T20:18:52.735Z,10.7
2022-10-06T20:23:52.324Z,10.7
2022-10-06T20:28:52.997Z,10.8
2022-10-06T20:33:52.285Z,10.8
2022-10-06T20:38:52.977Z,10.8
2022-10-06T20:43:52.551Z,10.8
2022-10-06T20:48:53.220Z,10.7
2022-10-06T20:53:52.548Z,10.7
2022-10-06T20:58:52.331Z,10.6
2022-10-06T21:03:53.010Z,10.6
2022-10-06T21:08:52.987Z,10.6
2022-10-06T21:13:52.251Z,10.6
2022-10-06T21:18:52.823Z,10.3
2022-10-06T21:23:52.696Z,10.3
2022-10-06T21:28:53.137Z,10.3
2022-10-06T21:33:52.690Z,10.3
2022-10-06T21:38:52.291Z,10
2022-10-06T21:43:52.834Z,10
2022-10-06T21:48:52.287Z,9.7
2022-10-06T21:53:52.882Z,9.7
2022-10-06T21:58:52.287Z,9.7
2022-10-06T22:03:52.210Z,9.7
2022-10-06T22:08:52.770Z,9.7
2022-10-06T22:13:52.471Z,9.7
2022-10-06T22:18:52.752Z,9.8
2022-10-06T22:23:52.755Z,9.8
2022-10-06T22:28:52.360Z,9.6
2022-10-06T22:33:53.009Z,9.6
2022-10-06T22:38:52.257Z,9.6
2022-10-06T22:43:52.697Z,9.6
2022-10-06T22:48:53.351Z,9.7
2022-10-06T22:53:58.743Z,9.7
2022-10-06T22:58:52.391Z,9.7
2022-10-06T23:03:52.968Z,9.7
2022-10-06T23:08:52.544Z,9.8
2022-10-06T23:13:55.099Z,9.8
2022-10-06T23:18:52.287Z,9.8
2022-10-06T23:23:52.938Z,9.8
2022-10-06T23:28:52.981Z,9.8
2022-10-06T23:33:52.707Z,9.8
2022-10-06T23:38:53.055Z,9.7
2022-10-06T23:43:52.835Z,9.7
2022-10-06T23:48:52.967Z,9.6
2022-10-06T23:53:52.514Z,9.6
2022-10-06T23:58:52.974Z,9.4
